createdAt,value
2023-03-24T00:01:01.894Z,26.80
2023-03-24T00:04:49.758Z,24.30
2023-03-24T00:06:43.636Z,29.40
2023-03-24T00:08:37.508Z,25.20
2023-03-24T00:10:34.944Z,27.60
2023-03-24T00:12:28.116Z,25.90
2023-03-24T00:14:21.061Z,27.90
2023-03-24T00:16:17.117Z,27.20
2023-03-24T00:18:10.839Z,26.90
2023-03-24T00:20:14.993Z,26.90
2023-03-24T00:22:09.648Z,26.80
2023-03-24T00:24:04.950Z,28.90
2023-03-24T00:26:12.448Z,29.00
2023-03-24T00:28:07.388Z,27.90
2023-03-24T00:30:00.385Z,29.00
2023-03-24T00:31:54.054Z,26.80
2023-03-24T00:33:51.426Z,24.40
2023-03-24T00:35:45.741Z,24.00
2023-03-24T00:37:41.806Z,23.20
2023-03-24T00:39:35.167Z,28.20
2023-03-24T00:41:29.088Z,23.10
2023-03-24T00:43:22.092Z,21.50
2023-03-24T00:45:19.923Z,24.00
2023-03-24T00:47:13.820Z,23.90
2023-03-24T00:49:08.311Z,22.60
2023-03-24T00:51:03.109Z,23.20
2023-03-24T00:52:58.505Z,23.90
2023-03-24T00:54:55.329Z,25.30
2023-03-24T00:56:50.102Z,22.40
2023-03-24T00:58:43.182Z,23.30
2023-03-24T01:00:42.468Z,22.20
2023-03-24T01:02:35.735Z,22.50
2023-03-24T01:04:28.886Z,21.40
2023-03-24T01:06:22.651Z,24.40
2023-03-24T01:08:20.376Z,25.60
2023-03-24T01:10:14.896Z,22.60
2023-03-24T01:12:08.665Z,22.80
2023-03-24T01:14:02.441Z,24.70
2023-03-24T01:15:56.722Z,24.30
2023-03-24T01:17:49.694Z,23.60
2023-03-24T01:19:42.713Z,26.00
2023-03-24T01:21:37.649Z,21.20
2023-03-24T01:23:31.172Z,24.10
2023-03-24T01:25:24.217Z,22.80
2023-03-24T01:27:17.160Z,23.20
2023-03-24T01:29:10.315Z,22.60
2023-03-24T01:31:03.164Z,20.80
2023-03-24T01:32:57.487Z,20.70
2023-03-24T01:34:50.489Z,23.80
2023-03-24T01:36:43.448Z,22.60
2023-03-24T01:38:37.204Z,20.30
2023-03-24T01:40:32.003Z,20.30
2023-03-24T01:42:27.148Z,20.70
2023-03-24T01:44:31.964Z,19.30
2023-03-24T01:46:26.734Z,22.00
2023-03-24T01:48:34.614Z,20.20
2023-03-24T01:50:27.664Z,19.80
2023-03-24T01:52:30.958Z,20.90
2023-03-24T01:54:28.339Z,21.90
2023-03-24T01:56:26.382Z,21.20
2023-03-24T01:58:19.742Z,21.10
2023-03-24T02:00:22.420Z,22.20
2023-03-24T02:02:36.576Z,25.30
2023-03-24T02:04:38.877Z,23.80
2023-03-24T02:06:34.439Z,22.90
2023-03-24T02:08:37.119Z,22.00
2023-03-24T02:10:33.482Z,24.70
2023-03-24T02:12:27.190Z,26.20
2023-03-24T02:14:20.867Z,23.60
2023-03-24T02:16:29.133Z,25.20
2023-03-24T02:18:30.009Z,26.10
2023-03-24T02:20:36.199Z,28.00
2023-03-24T02:22:51.032Z,25.10
2023-03-24T02:25:02.153Z,28.90
2023-03-24T02:27:09.808Z,24.00
2023-03-24T02:29:24.307Z,23.60
2023-03-24T02:31:47.454Z,23.30
2023-03-24T02:33:52.033Z,22.10
2023-03-24T02:35:52.084Z,23.60
2023-03-24T02:38:06.600Z,20.70
2023-03-24T02:40:08.471Z,21.60
2023-03-24T02:42:28.983Z,21.10
2023-03-24T02:44:54.457Z,21.50
2023-03-24T02:46:56.212Z,22.70
2023-03-24T02:49:10.974Z,20.50
2023-03-24T02:51:27.573Z,21.80
2023-03-24T02:54:02.506Z,22.90
2023-03-24T02:56:10.711Z,24.00
2023-03-24T02:58:11.646Z,22.90
2023-03-24T03:00:42.145Z,25.20
2023-03-24T03:02:41.153Z,22.90
2023-03-24T03:04:46.536Z,25.10
2023-03-24T03:06:44.572Z,23.00
2023-03-24T03:08:39.564Z,22.20
2023-03-24T03:10:41.023Z,21.30
2023-03-24T03:12:38.192Z,19.70
2023-03-24T03:14:42.890Z,19.00
2023-03-24T03:16:46.893Z,19.80
2023-03-24T03:18:45.277Z,18.00
2023-03-24T03:22:49.834Z,16.40
2023-03-24T03:24:50.660Z,17.80
2023-03-24T03:26:47.360Z,19.90
2023-03-24T03:28:50.397Z,19.30
2023-03-24T03:30:50.801Z,17.70
2023-03-24T03:32:54.632Z,18.30
2023-03-24T03:35:14.781Z,18.80
2023-03-24T03:37:26.060Z,19.30
2023-03-24T03:39:31.458Z,19.80
2023-03-24T03:41:25.670Z,18.40
2023-03-24T03:43:19.453Z,19.60
2023-03-24T03:45:14.436Z,17.70
2023-03-24T03:47:08.000Z,18.60
2023-03-24T03:51:13.200Z,19.10
2023-03-24T03:53:10.377Z,19.90
2023-03-24T03:55:04.949Z,19.40
2023-03-24T03:56:59.516Z,21.70
2023-03-24T03:58:56.917Z,20.50
2023-03-24T04:00:49.972Z,17.50
2023-03-24T04:03:52.928Z,17.80
2023-03-24T04:06:02.045Z,21.00
2023-03-24T04:08:18.702Z,20.40
2023-03-24T04:10:40.736Z,22.10
2023-03-24T04:12:48.217Z,18.60
2023-03-24T04:15:29.087Z,17.60
2023-03-24T04:17:52.765Z,17.40
2023-03-24T04:20:17.132Z,19.70
2023-03-24T04:22:44.282Z,18.90
2023-03-24T04:24:55.014Z,17.00
2023-03-24T04:27:09.573Z,17.20
2023-03-24T04:29:12.905Z,21.10
2023-03-24T04:31:26.102Z,19.00
2023-03-24T04:33:28.921Z,19.30
2023-03-24T04:35:32.023Z,20.30
2023-03-24T04:37:48.685Z,23.70
2023-03-24T04:39:49.828Z,20.80
2023-03-24T04:41:45.743Z,21.60
2023-03-24T04:43:45.602Z,20.00
2023-03-24T04:45:38.984Z,20.50
2023-03-24T04:47:54.345Z,21.00
2023-03-24T04:50:14.597Z,20.00
2023-03-24T04:52:08.238Z,19.20
2023-03-24T04:54:02.108Z,18.90
2023-03-24T04:56:07.755Z,21.10
2023-03-24T04:58:26.915Z,20.80
2023-03-24T05:00:20.084Z,21.60
2023-03-24T05:02:13.035Z,55.80
2023-03-24T05:04:26.752Z,38.20
2023-03-24T05:06:19.577Z,27.10
2023-03-24T05:08:13.465Z,234.30
2023-03-24T05:10:07.963Z,124.50
2023-03-24T05:12:06.435Z,418.30
2023-03-24T05:14:10.126Z,282.00
2023-03-24T05:16:03.187Z,154.50
2023-03-24T05:18:06.817Z,80.30
2023-03-24T05:19:59.832Z,61.30
2023-03-24T05:21:54.106Z,58.50
2023-03-24T05:23:49.305Z,92.00
2023-03-24T05:25:42.530Z,80.30
2023-03-24T05:27:36.243Z,68.20
2023-03-24T05:29:38.294Z,69.10
2023-03-24T05:31:31.852Z,97.50
2023-03-24T05:33:33.504Z,215.00
2023-03-24T05:35:27.271Z,174.10
2023-03-24T05:37:20.408Z,80.80
2023-03-24T05:39:15.784Z,53.40
2023-03-24T05:41:17.849Z,38.60
2023-03-24T05:43:12.634Z,36.80
2023-03-24T05:45:10.786Z,59.80
2023-03-24T05:47:04.528Z,78.50
2023-03-24T05:48:57.878Z,46.20
2023-03-24T05:50:56.823Z,28.40
2023-03-24T05:52:51.148Z,26.90
2023-03-24T05:55:05.599Z,27.80
2023-03-24T05:56:58.554Z,23.20
2023-03-24T05:58:57.023Z,20.80
2023-03-24T06:00:54.611Z,21.30
2023-03-24T06:02:54.758Z,21.60
2023-03-24T06:04:59.112Z,24.50
2023-03-24T06:06:56.192Z,20.10
2023-03-24T06:08:54.637Z,25.60
2023-03-24T06:10:49.637Z,21.50
2023-03-24T06:12:42.601Z,21.00
2023-03-24T06:14:35.531Z,20.60
2023-03-24T06:16:41.478Z,20.40
2023-03-24T06:18:35.351Z,19.20
2023-03-24T06:20:36.117Z,22.30
2023-03-24T06:22:38.860Z,21.50
2023-03-24T06:24:35.493Z,21.30
2023-03-24T06:26:32.538Z,20.50
2023-03-24T06:28:26.404Z,25.80
2023-03-24T06:30:19.970Z,25.80
2023-03-24T06:32:12.921Z,23.90
2023-03-24T06:34:08.020Z,31.20
2023-03-24T06:36:02.078Z,29.40
2023-03-24T06:37:56.265Z,22.90
2023-03-24T06:39:49.979Z,24.50
2023-03-24T06:41:44.215Z,22.10
2023-03-24T06:43:37.584Z,20.90
2023-03-24T06:45:31.277Z,19.50
2023-03-24T06:47:24.595Z,18.10
2023-03-24T06:49:17.643Z,18.40
2023-03-24T06:51:10.490Z,16.00
2023-03-24T06:53:04.522Z,37.60
2023-03-24T06:54:58.742Z,38.60
2023-03-24T06:56:53.066Z,19.70
2023-03-24T06:58:47.302Z,20.20
2023-03-24T07:00:52.232Z,21.80
2023-03-24T07:03:12.222Z,20.90
2023-03-24T07:05:08.435Z,19.40
2023-03-24T07:09:05.699Z,37.60
2023-03-24T07:10:58.852Z,20.50
2023-03-24T07:12:51.807Z,15.40
2023-03-24T07:14:44.837Z,18.20
2023-03-24T07:16:38.229Z,15.90
2023-03-24T07:18:46.106Z,24.20
2023-03-24T07:20:40.899Z,22.40
2023-03-24T07:22:42.256Z,20.50
2023-03-24T07:24:54.574Z,19.80
2023-03-24T07:27:04.695Z,23.80
2023-03-24T07:29:00.203Z,21.10
2023-03-24T07:31:10.894Z,17.90
2023-03-24T07:33:06.664Z,21.70
2023-03-24T07:34:59.649Z,18.10
2023-03-24T07:36:52.576Z,16.30
2023-03-24T07:38:45.427Z,16.80
2023-03-24T07:40:43.409Z,14.80
2023-03-24T07:42:37.062Z,16.70
2023-03-24T07:44:50.692Z,16.70
2023-03-24T07:46:44.018Z,15.80
2023-03-24T07:48:36.906Z,18.60
2023-03-24T07:50:31.091Z,19.40
2023-03-24T07:52:24.546Z,16.80
2023-03-24T07:54:19.016Z,15.80
2023-03-24T07:56:15.240Z,15.80
2023-03-24T07:58:14.791Z,15.70
2023-03-24T08:00:20.380Z,15.40
2023-03-24T08:02:22.663Z,14.50
2023-03-24T08:04:28.146Z,13.10
2023-03-24T08:06:21.152Z,14.20
2023-03-24T08:08:18.501Z,18.90
2023-03-24T08:10:13.891Z,18.60
2023-03-24T08:12:17.412Z,14.60
2023-03-24T08:14:13.123Z,15.40
2023-03-24T08:16:06.733Z,16.50
2023-03-24T08:17:59.766Z,20.10
2023-03-24T08:20:00.146Z,17.30
2023-03-24T08:21:54.224Z,15.50
2023-03-24T08:23:47.083Z,14.90
2023-03-24T08:25:40.325Z,27.40
2023-03-24T08:27:33.169Z,20.00
2023-03-24T08:29:26.126Z,17.00
2023-03-24T08:31:19.614Z,13.30
2023-03-24T08:33:14.986Z,13.50
2023-03-24T08:35:10.273Z,14.60
2023-03-24T08:37:03.291Z,13.70
2023-03-24T08:38:56.705Z,15.00
2023-03-24T08:40:50.260Z,14.10
2023-03-24T08:42:43.618Z,13.60
2023-03-24T08:44:36.524Z,14.60
2023-03-24T08:46:31.232Z,13.50
2023-03-24T08:48:24.815Z,14.60
2023-03-24T08:50:24.018Z,17.30
2023-03-24T08:52:18.189Z,13.20
2023-03-24T08:54:14.441Z,14.50
2023-03-24T08:56:08.177Z,15.40
2023-03-24T08:58:01.665Z,12.30
2023-03-24T08:59:54.527Z,13.40
2023-03-24T09:01:47.597Z,11.40
2023-03-24T09:03:41.611Z,11.40
2023-03-24T09:05:44.419Z,14.10
2023-03-24T09:07:48.702Z,13.40
2023-03-24T09:09:41.511Z,12.20
2023-03-24T09:11:35.440Z,14.70
2023-03-24T09:13:29.115Z,11.30
2023-03-24T09:15:22.344Z,11.10
2023-03-24T09:17:15.795Z,12.10
2023-03-24T09:19:09.460Z,10.80
2023-03-24T09:21:02.308Z,10.60
2023-03-24T09:22:56.290Z,11.30
2023-03-24T09:24:49.337Z,10.10
2023-03-24T09:26:42.591Z,9.00
2023-03-24T09:28:35.847Z,8.40
2023-03-24T09:30:30.543Z,8.70
2023-03-24T09:32:24.197Z,9.00
2023-03-24T09:34:17.057Z,9.70
2023-03-24T09:36:11.145Z,10.60
2023-03-24T09:38:05.288Z,19.00
2023-03-24T09:40:00.082Z,78.10
2023-03-24T09:41:55.284Z,60.10
2023-03-24T09:43:55.296Z,19.80
2023-03-24T09:45:54.796Z,13.50
2023-03-24T09:47:58.461Z,12.40
2023-03-24T09:49:53.902Z,11.10
2023-03-24T09:51:47.261Z,10.50
2023-03-24T09:54:24.853Z,10.60
2023-03-24T09:56:21.591Z,13.20
2023-03-24T09:58:14.538Z,11.60
2023-03-24T10:00:28.909Z,11.70
2023-03-24T10:02:23.127Z,10.30
2023-03-24T10:04:21.793Z,11.00
2023-03-24T10:06:26.270Z,9.50
2023-03-24T10:08:35.346Z,12.20
2023-03-24T10:10:42.178Z,9.30
2023-03-24T10:12:40.154Z,12.40
2023-03-24T10:14:56.240Z,9.50
2023-03-24T10:17:03.307Z,14.20
2023-03-24T10:19:37.015Z,9.80
2023-03-24T10:21:35.327Z,12.80
2023-03-24T10:23:53.064Z,13.80
2023-03-24T10:25:54.484Z,10.50
2023-03-24T10:27:53.908Z,11.10
2023-03-24T10:29:49.782Z,9.50
2023-03-24T10:31:45.993Z,11.70
2023-03-24T10:33:43.038Z,12.60
2023-03-24T10:35:41.806Z,9.20
2023-03-24T10:37:35.746Z,17.70
2023-03-24T10:39:43.598Z,25.10
2023-03-24T10:41:39.397Z,34.50
2023-03-24T10:43:33.597Z,43.30
2023-03-24T10:45:29.924Z,43.40
2023-03-24T10:47:27.379Z,37.70
2023-03-24T10:49:25.300Z,24.40
2023-03-24T10:51:25.668Z,23.00
2023-03-24T10:53:20.409Z,15.50
2023-03-24T10:55:19.571Z,16.10
2023-03-24T10:57:18.516Z,17.10
2023-03-24T10:59:32.267Z,12.60
2023-03-24T11:01:28.343Z,12.90
2023-03-24T11:03:28.708Z,12.70
2023-03-24T11:05:29.148Z,16.00
2023-03-24T11:07:32.738Z,13.00
2023-03-24T11:09:29.791Z,10.60
2023-03-24T11:11:31.634Z,15.00
2023-03-24T11:13:34.533Z,24.70
2023-03-24T11:15:32.671Z,14.50
2023-03-24T11:19:22.477Z,14.80
2023-03-24T11:21:15.936Z,11.20
2023-03-24T11:23:32.851Z,14.70
2023-03-24T11:25:33.297Z,35.30
2023-03-24T11:27:27.550Z,71.80
2023-03-24T11:29:58.420Z,42.60
2023-03-24T11:32:00.714Z,65.00
2023-03-24T11:34:08.689Z,101.40
2023-03-24T11:36:06.556Z,81.00
2023-03-24T11:38:04.701Z,79.40
2023-03-24T11:40:12.513Z,52.50
2023-03-24T11:42:22.778Z,100.40
2023-03-24T11:44:23.406Z,92.80
2023-03-24T11:46:20.788Z,73.50
2023-03-24T11:48:30.356Z,50.10
2023-03-24T11:50:29.034Z,28.70
2023-03-24T11:52:31.721Z,40.00
2023-03-24T11:54:32.974Z,125.50
2023-03-24T11:56:43.134Z,55.50
2023-03-24T11:59:03.822Z,31.70
2023-03-24T12:01:05.374Z,18.10
2023-03-24T12:03:49.295Z,19.60
2023-03-24T12:05:51.015Z,18.80
2023-03-24T12:08:21.282Z,16.50
2023-03-24T12:10:34.306Z,14.10
2023-03-24T12:12:48.137Z,15.90
2023-03-24T12:15:20.755Z,14.20
2023-03-24T12:17:26.196Z,14.20
2023-03-24T12:19:46.707Z,16.80
2023-03-24T12:22:01.614Z,23.30
2023-03-24T12:24:06.549Z,32.30
2023-03-24T12:26:05.434Z,37.30
2023-03-24T12:27:58.407Z,37.50
2023-03-24T12:30:21.022Z,39.10
2023-03-24T12:32:21.626Z,33.90
2023-03-24T12:34:44.703Z,29.60
2023-03-24T12:36:50.247Z,34.90
2023-03-24T12:38:52.978Z,40.00
2023-03-24T12:41:11.468Z,31.90
2023-03-24T12:43:36.023Z,25.50
2023-03-24T12:45:58.201Z,24.40
2023-03-24T12:48:08.290Z,22.00
2023-03-24T12:50:19.634Z,21.90
2023-03-24T12:52:24.463Z,27.60
2023-03-24T12:54:30.097Z,23.20
2023-03-24T12:56:33.127Z,27.20
2023-03-24T12:58:54.097Z,27.10
2023-03-24T13:01:16.563Z,16.20
2023-03-24T13:03:23.582Z,16.30
2023-03-24T13:05:22.246Z,15.70
2023-03-24T13:07:20.931Z,24.60
2023-03-24T13:09:36.243Z,17.20
2023-03-24T13:11:38.815Z,15.20
2023-03-24T13:13:39.498Z,16.70
2023-03-24T13:15:41.676Z,11.50
2023-03-24T13:18:08.934Z,15.80
2023-03-24T13:20:07.088Z,19.90
2023-03-24T13:22:00.594Z,20.40
2023-03-24T13:24:13.578Z,21.20
2023-03-24T13:26:19.069Z,17.60
2023-03-24T13:28:22.525Z,15.30
2023-03-24T13:30:33.411Z,11.20
2023-03-24T13:32:35.132Z,22.70
2023-03-24T13:34:35.627Z,18.30
2023-03-24T13:36:49.098Z,19.20
2023-03-24T13:38:47.958Z,15.30
2023-03-24T13:40:41.577Z,15.20
2023-03-24T13:42:37.377Z,20.90
2023-03-24T13:44:41.113Z,24.20
2023-03-24T13:46:38.526Z,14.30
2023-03-24T13:48:43.814Z,13.70
2023-03-24T13:50:55.984Z,10.10
2023-03-24T13:52:49.852Z,9.80
2023-03-24T13:54:44.239Z,8.80
2023-03-24T13:56:42.563Z,7.00
2023-03-24T13:58:49.178Z,7.40
2023-03-24T14:01:10.426Z,7.00
2023-03-24T14:03:17.220Z,5.60
2023-03-24T14:05:30.088Z,6.10
2023-03-24T14:07:41.262Z,6.20
2023-03-24T14:09:34.200Z,5.40
2023-03-24T14:11:38.413Z,6.90
2023-03-24T14:13:46.342Z,8.00
2023-03-24T14:15:58.327Z,14.40
2023-03-24T14:17:56.573Z,10.00
2023-03-24T14:19:58.760Z,8.30
2023-03-24T14:22:08.459Z,7.90
2023-03-24T14:24:04.289Z,9.00
2023-03-24T14:25:58.687Z,8.80
2023-03-24T14:27:54.522Z,6.90
2023-03-24T14:29:51.468Z,5.70
2023-03-24T14:32:00.481Z,7.30
2023-03-24T14:33:55.160Z,6.50
2023-03-24T14:35:49.183Z,7.30
2023-03-24T14:37:54.362Z,5.90
2023-03-24T14:39:47.410Z,7.50
2023-03-24T14:41:42.710Z,7.80
2023-03-24T14:43:41.194Z,6.30
2023-03-24T14:45:52.365Z,6.90
2023-03-24T14:47:45.789Z,11.10
2023-03-24T14:49:45.299Z,9.80
2023-03-24T14:52:13.524Z,11.80
2023-03-24T14:54:16.511Z,16.10
2023-03-24T14:56:16.813Z,21.30
2023-03-24T14:58:22.153Z,25.90
2023-03-24T15:00:23.892Z,32.70
2023-03-24T15:02:39.379Z,29.70
2023-03-24T15:04:33.774Z,18.70
2023-03-24T15:06:27.316Z,33.60
2023-03-24T15:08:22.519Z,25.80
2023-03-24T15:10:17.622Z,27.30
2023-03-24T15:12:10.570Z,24.40
2023-03-24T15:14:13.816Z,14.90
2023-03-24T15:16:12.968Z,27.60
2023-03-24T15:18:06.016Z,38.20
2023-03-24T15:19:59.616Z,167.20
2023-03-24T15:22:06.391Z,40.90
2023-03-24T15:24:26.917Z,20.10
2023-03-24T15:26:31.899Z,27.20
2023-03-24T15:28:27.818Z,21.00
2023-03-24T15:30:21.032Z,17.60
2023-03-24T15:32:23.103Z,15.20
2023-03-24T15:34:28.991Z,14.40
2023-03-24T15:36:23.324Z,15.90
2023-03-24T15:38:21.989Z,12.90
2023-03-24T15:40:26.935Z,10.80
2023-03-24T15:42:24.923Z,14.30
2023-03-24T15:44:20.807Z,9.40
2023-03-24T15:46:28.341Z,9.90
2023-03-24T15:48:24.896Z,9.80
2023-03-24T15:50:30.695Z,6.80
2023-03-24T15:52:29.591Z,7.80
2023-03-24T15:54:30.009Z,8.20
2023-03-24T15:56:29.171Z,7.30
2023-03-24T15:58:32.403Z,8.00
2023-03-24T16:00:28.647Z,7.90
2023-03-24T16:02:34.201Z,8.80
2023-03-24T16:04:29.969Z,12.40
2023-03-24T16:06:33.828Z,9.70
2023-03-24T16:08:31.787Z,11.50
2023-03-24T16:10:35.024Z,14.20
2023-03-24T16:12:27.877Z,35.30
2023-03-24T16:14:25.793Z,35.40
2023-03-24T16:16:30.848Z,20.20
2023-03-24T16:18:32.114Z,12.00
2023-03-24T16:20:25.060Z,12.30
2023-03-24T16:22:18.315Z,11.10
2023-03-24T16:24:11.266Z,13.00
2023-03-24T16:26:04.420Z,10.80
2023-03-24T16:27:57.579Z,13.30
2023-03-24T16:29:50.432Z,9.50
2023-03-24T16:31:45.320Z,12.00
2023-03-24T16:33:38.159Z,9.20
2023-03-24T16:35:31.135Z,8.30
2023-03-24T16:37:27.129Z,8.70
2023-03-24T16:39:24.477Z,8.10
2023-03-24T16:41:17.428Z,8.90
2023-03-24T16:43:10.477Z,9.80
2023-03-24T16:45:03.635Z,13.50
2023-03-24T16:46:56.617Z,10.50
2023-03-24T16:48:49.529Z,8.80
2023-03-24T16:50:45.548Z,11.70
2023-03-24T16:52:38.401Z,8.60
2023-03-24T16:54:34.021Z,7.80
2023-03-24T16:56:27.584Z,10.20
2023-03-24T16:58:20.526Z,13.40
2023-03-24T17:00:14.090Z,11.90
2023-03-24T17:02:10.437Z,10.50
2023-03-24T17:04:13.903Z,9.20
2023-03-24T17:06:08.589Z,27.20
2023-03-24T17:08:01.540Z,34.50
2023-03-24T17:09:57.730Z,19.10
2023-03-24T17:11:54.310Z,16.10
2023-03-24T17:13:47.140Z,14.10
2023-03-24T17:15:41.227Z,13.30
2023-03-24T17:17:34.544Z,11.90
2023-03-24T17:19:27.590Z,17.20
2023-03-24T17:21:21.704Z,12.90
2023-03-24T17:23:18.669Z,16.60
2023-03-24T17:25:13.635Z,27.30
2023-03-24T17:27:16.903Z,19.40
2023-03-24T17:29:13.410Z,13.80
2023-03-24T17:31:06.788Z,14.40
2023-03-24T17:33:00.028Z,12.00
2023-03-24T17:34:53.034Z,15.50
2023-03-24T17:36:46.480Z,15.90
2023-03-24T17:38:40.253Z,21.20
2023-03-24T17:40:33.194Z,23.50
2023-03-24T17:42:26.655Z,23.90
2023-03-24T17:44:19.602Z,26.10
2023-03-24T17:46:15.040Z,22.20
2023-03-24T17:48:08.208Z,19.30
2023-03-24T17:50:13.624Z,22.40
2023-03-24T17:52:09.174Z,21.10
2023-03-24T17:54:04.649Z,22.30
2023-03-24T17:56:02.021Z,30.30
2023-03-24T17:57:56.014Z,42.00
2023-03-24T17:59:51.895Z,36.30
2023-03-24T18:01:47.384Z,35.50
2023-03-24T18:03:40.755Z,42.40
2023-03-24T18:05:34.080Z,44.60
2023-03-24T18:07:27.323Z,45.90
2023-03-24T18:09:20.287Z,39.00
2023-03-24T18:11:15.027Z,45.90
2023-03-24T18:13:08.327Z,39.30
2023-03-24T18:15:02.305Z,33.50
2023-03-24T18:16:55.373Z,63.00
2023-03-24T18:18:51.066Z,105.80
2023-03-24T18:20:44.317Z,41.40
2023-03-24T18:22:41.369Z,38.00
2023-03-24T18:24:36.091Z,42.80
2023-03-24T18:26:29.826Z,40.20
2023-03-24T18:28:22.870Z,38.00
2023-03-24T18:30:16.973Z,28.30
2023-03-24T18:32:10.260Z,25.80
2023-03-24T18:34:04.238Z,38.00
2023-03-24T18:35:58.362Z,49.90
2023-03-24T18:37:51.301Z,31.20
2023-03-24T18:39:44.300Z,25.30
2023-03-24T18:41:38.428Z,25.10
2023-03-24T18:43:34.444Z,37.80
2023-03-24T18:45:27.254Z,41.20
2023-03-24T18:47:20.340Z,45.20
2023-03-24T18:49:14.622Z,51.60
2023-03-24T18:51:08.284Z,110.20
2023-03-24T18:53:01.136Z,117.30
2023-03-24T18:54:54.405Z,130.30
2023-03-24T18:56:47.257Z,84.70
2023-03-24T18:58:40.897Z,61.70
2023-03-24T19:00:33.749Z,39.50
2023-03-24T19:02:27.390Z,26.80
2023-03-24T19:04:20.763Z,24.80
2023-03-24T19:06:14.748Z,28.10
2023-03-24T19:08:07.690Z,35.70
2023-03-24T19:10:01.055Z,41.50
2023-03-24T19:11:54.328Z,42.40
2023-03-24T19:13:52.556Z,60.80
2023-03-24T19:15:49.081Z,56.40
2023-03-24T19:17:43.976Z,96.40
2023-03-24T19:19:39.406Z,83.40
2023-03-24T19:21:38.246Z,77.30
2023-03-24T19:23:34.012Z,65.60
2023-03-24T19:25:30.434Z,45.90
2023-03-24T19:27:33.865Z,38.20
2023-03-24T19:29:31.182Z,31.60
2023-03-24T19:31:24.106Z,31.50
2023-03-24T19:33:18.002Z,29.50
2023-03-24T19:35:11.030Z,27.70
2023-03-24T19:37:03.999Z,32.00
2023-03-24T19:38:56.948Z,38.50
2023-03-24T19:40:51.842Z,46.30
2023-03-24T19:42:45.266Z,56.20
2023-03-24T19:44:38.092Z,58.70
2023-03-24T19:46:31.026Z,72.40
2023-03-24T19:48:23.952Z,54.40
2023-03-24T19:50:18.657Z,51.80
2023-03-24T19:52:11.520Z,44.80
2023-03-24T19:54:04.433Z,41.40
2023-03-24T19:55:58.497Z,45.80
2023-03-24T19:57:52.218Z,41.00
2023-03-24T19:59:46.132Z,37.20
2023-03-24T20:01:39.020Z,45.90
2023-03-24T20:03:34.643Z,53.80
2023-03-24T20:05:32.271Z,49.90
2023-03-24T20:07:31.428Z,48.40
2023-03-24T20:09:27.297Z,54.00
2023-03-24T20:11:20.928Z,46.70
2023-03-24T20:13:14.094Z,49.90
2023-03-24T20:15:12.130Z,47.60
2023-03-24T20:17:17.660Z,42.70
2023-03-24T20:19:13.358Z,34.30
2023-03-24T20:21:10.769Z,36.30
2023-03-24T20:23:13.786Z,47.40
2023-03-24T20:25:10.717Z,49.80
2023-03-24T20:27:03.834Z,48.30
2023-03-24T20:28:57.706Z,36.90
2023-03-24T20:30:59.246Z,32.80
2023-03-24T20:32:57.693Z,29.80
2023-03-24T20:34:52.555Z,26.90
2023-03-24T20:36:45.982Z,34.70
2023-03-24T20:38:39.146Z,49.40
2023-03-24T20:40:32.188Z,41.40
2023-03-24T20:42:27.568Z,37.30
2023-03-24T20:44:20.436Z,31.30
2023-03-24T20:46:17.728Z,30.20
2023-03-24T20:48:11.041Z,28.90
2023-03-24T20:50:06.156Z,37.80
2023-03-24T20:51:59.102Z,28.60
2023-03-24T20:53:51.953Z,29.10
2023-03-24T20:55:49.373Z,30.40
2023-03-24T20:57:42.542Z,35.80
2023-03-24T20:59:37.412Z,32.10
2023-03-24T21:01:36.332Z,31.20
2023-03-24T21:03:29.775Z,28.90
2023-03-24T21:05:22.726Z,30.70
2023-03-24T21:07:15.571Z,32.20
2023-03-24T21:09:08.348Z,29.50
2023-03-24T21:11:01.265Z,28.20
2023-03-24T21:12:54.829Z,30.10
2023-03-24T21:14:49.195Z,39.20
2023-03-24T21:16:42.213Z,39.70
2023-03-24T21:18:36.800Z,35.50
2023-03-24T21:20:30.880Z,30.80
2023-03-24T21:22:24.025Z,33.20
2023-03-24T21:24:17.864Z,32.70
2023-03-24T21:26:20.258Z,33.40
2023-03-24T21:28:16.285Z,30.40
2023-03-24T21:30:25.284Z,29.80
2023-03-24T21:32:21.793Z,27.00
2023-03-24T21:34:15.454Z,29.80
2023-03-24T21:36:08.851Z,31.40
2023-03-24T21:38:05.627Z,28.00
2023-03-24T21:39:58.563Z,25.60
2023-03-24T21:41:52.584Z,27.20
2023-03-24T21:43:46.867Z,27.30
2023-03-24T21:45:39.901Z,26.80
2023-03-24T21:47:34.630Z,23.70
2023-03-24T21:49:27.462Z,23.40
2023-03-24T21:51:25.263Z,25.50
2023-03-24T21:53:19.115Z,41.30
2023-03-24T21:55:15.817Z,30.60
2023-03-24T21:57:08.740Z,26.10
2023-03-24T21:59:01.943Z,28.80
2023-03-24T22:00:55.001Z,31.40
2023-03-24T22:02:51.047Z,32.70
2023-03-24T22:04:46.471Z,25.40
2023-03-24T22:06:39.528Z,32.00
2023-03-24T22:08:32.581Z,31.30
2023-03-24T22:10:30.051Z,24.70
2023-03-24T22:12:22.985Z,26.20
2023-03-24T22:14:16.446Z,26.00
2023-03-24T22:16:09.907Z,30.40
2023-03-24T22:18:02.860Z,31.00
2023-03-24T22:19:57.665Z,26.20
2023-03-24T22:22:00.528Z,27.20
2023-03-24T22:23:54.420Z,30.60
2023-03-24T22:25:48.353Z,30.80
2023-03-24T22:27:43.315Z,28.70
2023-03-24T22:29:37.550Z,30.20
2023-03-24T22:31:30.630Z,30.10
2023-03-24T22:33:24.373Z,28.10
2023-03-24T22:35:17.469Z,29.10
2023-03-24T22:37:10.988Z,31.30
2023-03-24T22:39:04.224Z,39.50
2023-03-24T22:40:58.865Z,30.50
2023-03-24T22:42:51.965Z,34.10
2023-03-24T22:44:45.110Z,36.70
2023-03-24T22:46:38.050Z,37.10
2023-03-24T22:48:31.421Z,38.40
2023-03-24T22:50:24.336Z,33.10
2023-03-24T22:52:17.321Z,33.70
2023-03-24T22:54:10.266Z,31.50
2023-03-24T22:56:06.127Z,32.00
2023-03-24T22:57:59.140Z,31.90
2023-03-24T22:59:51.920Z,29.40
2023-03-24T23:01:45.829Z,36.30
2023-03-24T23:03:42.900Z,35.70
2023-03-24T23:05:46.593Z,37.00
2023-03-24T23:07:39.545Z,34.40
2023-03-24T23:09:33.000Z,34.50
2023-03-24T23:11:26.460Z,35.80
2023-03-24T23:13:20.235Z,35.60
2023-03-24T23:15:14.306Z,40.30
2023-03-24T23:17:09.544Z,35.50
2023-03-24T23:19:02.964Z,30.10
2023-03-24T23:21:07.248Z,32.90
2023-03-24T23:23:01.446Z,29.40
2023-03-24T23:25:01.860Z,29.90
2023-03-24T23:26:56.263Z,26.10
2023-03-24T23:28:49.721Z,32.40
2023-03-24T23:30:43.086Z,27.50
2023-03-24T23:32:37.460Z,29.60
2023-03-24T23:34:30.410Z,29.60
2023-03-24T23:36:26.414Z,28.40
2023-03-24T23:38:19.480Z,28.40
2023-03-24T23:40:15.154Z,30.80
2023-03-24T23:42:08.244Z,27.20
2023-03-24T23:44:01.098Z,31.70
2023-03-24T23:45:58.180Z,26.20
2023-03-24T23:47:51.862Z,26.80
2023-03-24T23:49:44.856Z,30.30
2023-03-24T23:51:37.701Z,34.20
2023-03-24T23:53:31.266Z,33.90
2023-03-24T23:55:25.950Z,34.80
2023-03-24T23:57:18.898Z,31.50
2023-03-24T23:59:11.948Z,29.30
